Logo AVAMET
Benvolgut visitant, si us plau, ingressa Recuperar contrasenya

Inforatge Xeraco centre

Dades diàries. Acumulats / Últims 30 dies disponibles

Data Temperatura (°C) Humitat rel. (%) Pressió rel. (hPa) Vent (km/h) Precipitació
Mínima Mitjana Màxima Amplitud
tèrmica
Mínima Mitjana Màxima Mínima Mitjana Màxima Predom. Mitjana Ràfega
màxima
Total
(mm)
Índex-n
Mínima Mitjana Màxima Mínima Mitjana Màxima n
0 a 1
P0 max
mm 5'
Dades mensuals acumulades fins l'últim dia disponible
11/2019 9,6 14,3 22,7 17,2 16,0 20,9 27,9 18,3 25 51 89 1.001 1.011 1.021   13,9 64,4 9,0
Dades anuals acumulades fins l'últim dia disponible
2019 4,2 16,1 27,3 19,7 11,6 23,5 39,2 35,0 15 66 97 995 1.018 1.037   6,8 80,6 380,4
Últims 30 dies disponibles
17-11-2019 10,4     13,5     18,1 7,7 39 51 82 1.011 1.013 1.016 W 16,6 57,9 3,0 0,21 0,40
16-11-2019 9,6     12,6     16,7 7,1 37 50 61 1.008 1.012 1.016 WNW 11,7 37,0 0,0
15-11-2019 10,6     12,9     16,0 5,4 40 52 62 1.001 1.004 1.008 W 14,5 56,3 0,0
14-11-2019 12,2     15,4     19,2 7,0 43 55 68 1.001 1.004 1.010 W 12,9 57,9 0,0
13-11-2019 12,3     15,6     20,8 8,5 45 70 89 1.006 1.009 1.012 W 7,1 54,7 3,6 0,32 0,40
12-11-2019 12,6     15,6     20,5 7,9 33 44 56 1.010 1.012 1.014 WNW 10,8 51,5 0,0
11-11-2019 10,7     14,4     17,9 7,2 40 47 53 1.011 1.014 1.016 W 14,6 46,7 0,0
10-11-2019 12,0     14,4     17,5 5,5 38 51 70 1.011 1.013 1.015 WNW 15,6 62,8 2,4
09-11-2019 13,1     15,8     19,2 6,1 32 43 63 1.014 1.018 1.020 W 15,9 49,9 0,0
08-11-2019 11,6     14,7     17,1 5,5 36 44 55 1.011 1.014 1.018 WNW 17,1 56,3 0,0
07-11-2019 13,6     17,7     22,1 8,5 25 49 65 1.008 1.011 1.014 W 10,0 38,6 0,0
06-11-2019 14,7     17,7     22,1 7,4 34 47 57 1.012 1.014 1.016 W 15,3 49,9 0,0
05-11-2019 16,7     18,8     22,1 5,4 39 46 57 1.009 1.011 1.013 W 16,1 61,2 0,0
04-11-2019 19,4     22,0     25,4 6,0 41 52 61 1.008 1.011 1.012 O 16,2 64,4 0,0
03-11-2019 20,4     22,3     24,8 4,4 39 49 59 1.003 1.006 1.011 W 14,6 64,4 0,0
02-11-2019 22,7     24,2     27,6 4,9 40 53 63 1.006 1.010 1.014 W 14,3 56,3 0,0
01-11-2019 20,2     24,6     27,9 7,7 50 58 67 1.015 1.018 1.021 W 13,7 53,1 0,0
31-10-2019 21,4     23,9     27,7 6,3 47 57 66 1.020 1.021 1.022 OSO 11,3 43,5 0,0
30-10-2019 15,9     20,8     24,6 8,7 52 71 88 1.020 1.021 1.023 WNW 4,0 32,2 0,0
29-10-2019 15,7     19,2     23,2 7,5 63 84 95 1.016 1.018 1.020 W 3,1 20,9 0,0
28-10-2019 15,1     18,3     21,8 6,7 69 85 94 1.017 1.019 1.021 W 2,4 11,3 0,0
27-10-2019 14,8     18,4     21,4 6,6 71 83 93 1.021 1.022 1.024 W 3,7 19,3 0,0
26-10-2019 13,5     18,0     21,9 8,4 62 76 87 1.021 1.022 1.024 W 3,1 17,7 0,0
25-10-2019 15,3     19,5     23,6 8,3 46 58 83 1.022 1.023 1.024 W 5,6 29,0 0,0
24-10-2019 14,3     18,0     22,4 8,1 42 56 65 1.012 1.017 1.022 W 12,4 45,1 0,0
23-10-2019 13,6     16,3     20,7 7,1 43 61 80 1.007 1.009 1.013 W 6,3 35,4 0,0
22-10-2019 14,1     15,4     17,1 3,0 71 80 92 1.007 1.010 1.014 NW 7,7 46,7 41,8 0,92 26,40
21-10-2019 13,9     16,4     19,4 5,5 49 66 81 1.017 1.018 1.020 S 3,1 22,5 0,0
20-10-2019 16,0     19,5     22,2 6,2 51 67 85 1.006 1.010 1.017 W 5,1 40,2 0,4
19-10-2019 18,9     22,9     26,2 7,3 45 58 76 1.007 1.011 1.014 ESE 3,4 25,7 0,0
Últims 13 mesos disponibles
10/2019 13,5 17,4 21,4 21,2 17,1 25,0 32,9 19,4 41 66 85 1.009 1.017 1.023 W 5,0 59,5 44,6
09/2019 15,3 21,0 24,3 24,4 23,3 27,6 35,3 20,0 42 74 90 1.011 1.019 1.025 S 6,2 77,8 58,6
08/2019 19,2 23,7 27,3 26,8 24,9 30,4 37,1 17,9 53 74 82 1.011 1.016 1.021 SSE 5,6 55,6 5,2
07/2019 21,3 23,9 26,4 27,0 27,1 30,6 39,2 17,9 43 70 82 1.006 1.015 1.022 SSE 6,3 56,3 0,2
06/2019 14,6 18,9 22,7 22,8 20,3 26,8 33,0 18,4 37 68 84 1.009 1.016 1.023 SSE 6,4 50,0 0,2
05/2019 11,2 15,6 23,2 19,2 17,9 23,5 31,8 20,6 47 68 82 1.006 1.016 1.025 SSE 6,2 56,3 9,0
04/2019 10,0 12,7 15,2 15,9 13,9 19,2 29,2 19,2 37 68 94 1.002 1.014 1.026 SSE 9,1 61,1 216,6
03/2019 8,3 10,8 15,9 15,3 12,1 19,4 28,3 20,0 30 60 90 1.012 1.024 1.031 S 5,8 64,8 35,8
02/2019 6,6 8,9 12,3 13,0 13,3 17,2 22,4 15,8 33 65 83 996 1.026 1.035 S 5,5 79,6 0,0
01/2019 4,2 8,9 14,2 12,7 11,6 16,7 20,9 16,7 40 57 84 1.003 1.020 1.032 SSO 7,4 80,6 1,2
12/2018 6,3 10,7 15,9 14,5 14,2 18,7 24,6 18,3 47 67 88 1.010 1.026 1.032 SSO 5,6 63,0 24,0
11/2018 8,3 13,1 17,2 16,0 16,3 19,1 22,4 14,1 43 68 95 1.002 1.016 1.025 SO 6,5 75,9 318,0
10/2018 9,1 16,2 21,2 19,3 15,4 22,7 29,4 20,3 42 71 90 1.001 1.015 1.026 S 6,0 61,1 153,6
Tots els anys disponibles
2018 4,6 15,8 27,7 19,0 8,4 22,6 37,1 32,5 35 67 95 994 1.017 1.036 SSE 6,5 76,0 924,6
2017 1,4 16,3 26,9 19,8 9,6 23,3 39,0 37,6 33 68 93 1.002 1.017 1.038 SE 0,0 97,0 399,0
2016 4,8 16,0 25,6 19,4 12,4 22,8 39,6 34,8 29 66 93 993 1.017 1.036 93,0 543,9
Temperatura (°C)
Humitat relativa (%)
Velocitat del vent i ràfega màxima (km/h)
Direcció del vent (°)
Pressió (hPa)
Precipitació (mm)
Nota sobre les dades: s'avisa a l'usuari de la provisionalitat i no oficialitat d'aquestes dades
Logo AVAMET blanc
Web allotjada a Sollutia
Llicència de Creative CommonsLa web d'AVAMET i els seus continguts estan subjectes a una llicència de
Reconeixement - No Comercial - Compartir igual
Últimes estacions: Xàbia - Alt de la Granadella (Soci), Villena - Sierra de Salinas (Soci), Sueca - Centre (Inforatge), Xàbia - La Plana (Soci), Banyeres de Mariola - Molí Sol (Soci), Villena - Villa Ventín (Soci), Benissa - Convent (Soci), - - -